Time;durP1;ratioP1;P1;durP2;ratioP2;P2;SDS_P1;SDS_P2;PMS_P1;PMS_P2;Temp;Humidity;BMP_temperature;BMP_pressure;BME280_temperature;BME280_humidity;BME280_pressure;Samples;Min_cycle;Max_cycle;Signal;HPM_P1;HPM_P2
2022/12/06 00:02:43;;;;;;;0.50;0.50;;;7.40;99.90;7.20;101822.00;;;;5035359;28;20681;-68
2022/12/06 00:05:48;;;;;;;0.60;0.60;;;7.30;99.90;6.80;101814.00;;;;5038452;28;20252;-68
2022/12/06 00:09:11;;;;;;;0.80;0.80;;;7.30;99.90;7.30;101818.00;;;;5034019;28;20176;-68
2022/12/06 00:12:30;;;;;;;0.50;0.50;;;7.40;99.90;7.20;101812.00;;;;5020203;28;20249;-68
2022/12/06 00:15:37;;;;;;;0.50;0.50;;;7.30;99.90;7.00;101800.00;;;;5040040;28;20213;-68
2022/12/06 00:18:48;;;;;;;0.57;0.57;;;7.20;99.90;7.00;101809.00;;;;5048885;28;20594;-68
2022/12/06 00:21:56;;;;;;;1.20;1.20;;;7.30;99.90;7.00;101805.00;;;;5033391;28;20183;-68
2022/12/06 00:24:57;;;;;;;1.13;1.13;;;7.30;99.90;6.70;101745.00;;;;5034052;28;20189;-68
2022/12/06 00:27:51;;;;;;;0.50;0.50;;;7.20;99.90;7.10;101809.00;;;;5033642;28;20187;-68
2022/12/06 00:30:58;;;;;;;0.50;0.50;;;7.20;99.90;7.10;101818.00;;;;5033342;28;20187;-68
2022/12/06 00:34:10;;;;;;;1.23;1.23;;;7.30;99.90;7.00;101815.00;;;;5033612;28;20562;-68
2022/12/06 00:37:23;;;;;;;3.90;2.00;;;7.30;99.90;7.40;101816.00;;;;5033294;28;20591;-68
2022/12/06 00:40:14;;;;;;;0.50;0.50;;;7.40;99.90;6.80;101771.00;;;;5017157;28;20526;-68
2022/12/06 00:43:18;;;;;;;0.73;0.73;;;7.30;99.90;7.10;101807.00;;;;5033055;28;20218;-68
2022/12/06 00:46:26;;;;;;;0.50;0.50;;;7.30;99.90;7.00;101813.00;;;;5024832;28;20199;-68
2022/12/06 00:49:35;;;;;;;0.50;0.50;;;7.30;99.90;6.80;101770.00;;;;5057630;28;20198;-68
2022/12/06 00:52:42;;;;;;;0.50;0.50;;;7.10;99.90;7.00;101798.00;;;;5045356;28;20693;-68
2022/12/06 00:55:35;;;;;;;0.60;0.60;;;7.20;99.90;7.40;101798.00;;;;5023380;28;20183;-68
2022/12/06 00:58:23;;;;;;;0.50;0.50;;;7.30;99.90;7.30;101797.00;;;;5033213;28;20238;-68
2022/12/06 01:01:37;;;;;;;0.70;0.70;;;7.50;99.90;7.70;101801.00;;;;5018598;28;21064;-68
2022/12/06 01:04:58;;;;;;;1.03;1.03;;;7.60;99.90;7.70;101802.00;;;;5024776;28;20661;-68
2022/12/06 01:08:05;;;;;;;0.73;0.73;;;7.60;99.90;7.40;101798.00;;;;5033369;28;20189;-68
2022/12/06 01:11:12;;;;;;;0.90;0.90;;;7.60;99.90;7.50;101796.00;;;;5035320;28;20179;-68
2022/12/06 01:14:30;;;;;;;0.60;0.60;;;7.60;99.90;7.60;101750.00;;;;5016280;28;20200;-68
2022/12/06 01:17:40;;;;;;;8.90;7.03;;;7.50;99.90;7.10;101790.00;;;;5032610;28;20187;-68
2022/12/06 01:20:27;;;;;;;0.50;0.50;;;7.40;99.90;7.10;101789.00;;;;5016411;28;20198;-68
2022/12/06 01:23:32;;;;;;;0.60;0.60;;;7.30;99.90;7.20;101782.00;;;;5031757;28;20229;-68
2022/12/06 01:26:22;;;;;;;1.53;1.43;;;7.30;99.90;7.20;101803.00;;;;5028352;28;20210;-68
2022/12/06 01:29:33;;;;;;;0.50;0.50;;;7.30;99.90;6.80;101802.00;;;;5027792;28;20205;-68
2022/12/06 01:32:24;;;;;;;1.17;1.17;;;7.10;99.90;6.70;101795.00;;;;5026772;28;20202;-68
2022/12/06 01:35:28;;;;;;;0.97;0.80;;;7.10;99.90;7.00;101770.00;;;;5030825;28;20705;-68
2022/12/06 01:38:27;;;;;;;1.63;1.57;;;7.20;99.90;7.00;101741.00;;;;5054751;28;20186;-68
2022/12/06 01:41:30;;;;;;;1.10;1.00;;;7.20;99.90;6.90;101738.00;;;;5032247;28;20709;-68
2022/12/06 01:45:00;;;;;;;0.97;0.97;;;7.20;99.90;6.80;101801.00;;;;5026343;28;20647;-68
2022/12/06 01:47:44;;;;;;;0.73;0.73;;;7.20;99.90;6.60;101738.00;;;;5029815;28;20185;-68
2022/12/06 01:50:39;;;;;;;0.50;0.50;;;7.10;99.90;6.90;101800.00;;;;5032326;28;20232;-68
2022/12/06 01:53:29;;;;;;;0.60;0.60;;;7.10;99.90;6.80;101798.00;;;;5024811;28;20218;-68
2022/12/06 01:56:18;;;;;;;0.60;0.60;;;7.20;99.90;7.10;101803.00;;;;5024492;28;20184;-68
2022/12/06 01:59:10;;;;;;;0.50;0.50;;;7.20;99.90;6.40;101784.00;;;;5014531;28;20183;-68
2022/12/06 02:02:12;;;;;;;1.30;1.23;;;7.10;99.90;6.80;101800.00;;;;5025971;28;20213;-68
2022/12/06 02:05:11;;;;;;;0.50;0.50;;;7.00;99.90;6.80;101799.00;;;;5024460;28;20650;-68
2022/12/06 02:08:01;;;;;;;0.50;0.50;;;7.10;99.90;6.30;101740.00;;;;5022761;28;20193;-69
2022/12/06 02:11:24;;;;;;;0.97;0.97;;;6.90;99.90;6.60;101800.00;;;;5031687;28;20187;-68
2022/12/06 02:14:47;;;;;;;0.50;0.50;;;7.10;99.90;6.80;101805.00;;;;5031464;28;20186;-68
2022/12/06 02:17:45;;;;;;;1.23;1.23;;;7.10;99.90;7.20;101800.00;;;;5029233;28;20192;-68
2022/12/06 02:20:31;;;;;;;0.50;0.50;;;7.20;99.90;7.30;101795.00;;;;5024923;28;20237;-69
2022/12/06 02:23:25;;;;;;;0.60;0.60;;;7.40;99.90;6.70;101793.00;;;;5032691;28;20216;-68
2022/12/06 02:26:18;;;;;;;1.00;1.00;;;7.30;99.90;6.70;101797.00;;;;5015334;28;20214;-69
2022/12/06 02:29:01;;;;;;;1.53;1.53;;;7.10;99.90;6.70;101793.00;;;;5033016;28;20194;-69
2022/12/06 02:31:53;;;;;;;0.47;0.47;;;7.10;99.90;6.80;101804.00;;;;5030872;28;20211;-69
2022/12/06 02:34:39;;;;;;;1.10;1.10;;;7.00;99.90;7.00;101798.00;;;;5031098;28;20182;-69
2022/12/06 02:37:53;;;;;;;0.50;0.50;;;7.20;99.90;7.10;101792.00;;;;5031401;28;20654;-69
2022/12/06 02:40:47;;;;;;;1.20;1.10;;;7.30;99.90;6.80;101791.00;;;;5020884;28;20286;-69
2022/12/06 02:43:40;;;;;;;0.80;0.80;;;7.20;99.90;7.10;101808.00;;;;5037438;28;20264;-68
2022/12/06 02:46:36;;;;;;;0.50;0.50;;;7.30;99.90;6.60;101793.00;;;;5015487;28;20265;-68
2022/12/06 02:49:25;;;;;;;0.50;0.50;;;7.00;99.90;7.30;101800.00;;;;5056396;28;20190;-68
2022/12/06 02:52:13;;;;;;;0.50;0.50;;;7.30;99.90;7.20;101807.00;;;;5030315;28;20225;-68
2022/12/06 02:55:19;;;;;;;0.60;0.60;;;7.40;99.90;7.10;101795.00;;;;5031605;28;20239;-68
2022/12/06 02:58:23;;;;;;;0.50;0.50;;;7.50;99.90;7.00;101805.00;;;;5031428;28;20666;-68
2022/12/06 03:01:12;;;;;;;0.80;0.80;;;7.30;99.90;7.20;101810.00;;;;5026507;28;20186;-69
2022/12/06 03:04:45;;;;;;;0.80;0.80;;;7.30;99.90;7.00;101796.00;;;;5023206;28;20573;-68
2022/12/06 03:08:01;;;;;;;4.43;3.27;;;7.30;99.90;7.10;101799.00;;;;5026012;28;20189;-68
2022/12/06 03:11:46;;;;;;;1.27;1.27;;;7.30;99.90;7.00;101800.00;;;;5026113;28;20190;-68
2022/12/06 03:15:05;;;;;;;0.60;0.60;;;7.20;99.90;6.90;101809.00;;;;5009160;28;20300;-68
2022/12/06 03:18:28;;;;;;;0.60;0.60;;;7.10;99.90;6.80;101808.00;;;;4977713;28;20195;-68
2022/12/06 03:21:25;;;;;;;0.70;0.70;;;7.10;99.90;7.00;101807.00;;;;5014154;28;20190;-68
2022/12/06 03:24:32;;;;;;;0.60;0.60;;;7.10;99.90;7.00;101814.00;;;;4994504;28;20192;-69
2022/12/06 03:27:45;;;;;;;0.60;0.60;;;7.20;99.90;7.10;101806.00;;;;4999986;28;20191;-68
2022/12/06 03:30:38;;;;;;;0.70;0.70;;;7.20;99.90;7.20;101796.00;;;;4997202;28;20241;-68
2022/12/06 03:33:48;;;;;;;0.60;0.60;;;7.20;99.90;7.00;101794.00;;;;4997514;28;20203;-68
2022/12/06 03:36:37;;;;;;;0.70;0.70;;;7.20;99.90;6.90;101781.00;;;;4991493;28;20722;-68
2022/12/06 03:39:34;;;;;;;1.53;1.43;;;7.10;99.90;6.70;101807.00;;;;5008145;28;20239;-68
2022/12/06 03:42:41;;;;;;;0.70;0.70;;;7.10;99.90;7.00;101805.00;;;;5004942;28;20210;-68
2022/12/06 03:49:36;;;;;;;1.03;1.03;;;7.20;99.90;7.00;101808.00;;;;5033391;28;20261;-68
2022/12/06 03:52:51;;;;;;;0.80;0.80;;;7.10;99.90;6.70;101808.00;;;;5019491;28;20183;-68
2022/12/06 03:55:31;;;;;;;0.73;0.73;;;7.20;99.90;6.90;101806.00;;;;5051319;28;20218;-68
2022/12/06 03:58:17;;;;;;;0.63;0.63;;;7.10;99.90;7.30;101784.00;;;;5018288;28;20191;-69
2022/12/06 04:01:11;;;;;;;0.60;0.60;;;7.30;99.90;6.90;101799.00;;;;5034206;28;20199;-68
2022/12/06 04:03:56;;;;;;;0.60;0.60;;;7.20;99.90;6.90;101782.00;;;;5017077;28;20202;-68
2022/12/06 04:06:49;;;;;;;0.50;0.50;;;7.20;99.90;6.80;101775.00;;;;5033894;28;20196;-68
2022/12/06 04:15:47;;;;;;;0.60;0.60;;;7.10;99.90;6.80;101787.00;;;;5025224;28;20275;-68
2022/12/06 04:18:53;;;;;;;1.07;1.07;;;7.20;99.90;7.00;101794.00;;;;5016643;28;20646;-69
2022/12/06 04:25:04;;;;;;;0.50;0.50;;;7.00;99.90;6.80;101775.00;;;;5032940;28;20194;-69
2022/12/06 04:41:03;;;;;;;0.60;0.60;;;7.20;99.90;6.90;101788.00;;;;5033649;28;21407;-68
2022/12/06 04:44:09;;;;;;;1.20;1.20;;;7.10;99.90;7.00;101781.00;;;;5034048;28;20701;-68
2022/12/06 04:47:17;;;;;;;0.50;0.50;;;7.10;99.90;6.80;101772.00;;;;5033344;28;20190;-68
2022/12/06 04:53:45;;;;;;;0.63;0.63;;;7.10;99.90;6.40;101755.00;;;;5035497;28;21322;-68
2022/12/06 04:56:43;;;;;;;0.50;0.50;;;6.90;99.90;6.40;101780.00;;;;5033096;28;20191;-68
2022/12/06 04:59:50;;;;;;;0.37;0.37;;;6.80;99.90;6.40;101785.00;;;;5033337;28;20182;-68
2022/12/06 05:02:43;;;;;;;8.03;5.93;;;6.80;99.90;6.60;101770.00;;;;5024392;28;20662;-68
2022/12/06 05:05:54;;;;;;;0.87;0.87;;;6.90;99.90;6.40;101787.00;;;;5032482;28;20183;-68
2022/12/06 05:08:57;;;;;;;1.10;1.10;;;6.90;99.90;6.70;101776.00;;;;5023216;28;20273;-68
2022/12/06 05:12:01;;;;;;;0.40;0.40;;;7.00;99.90;6.50;101774.00;;;;5046905;28;20197;-68
2022/12/06 05:15:02;;;;;;;1.00;1.00;;;6.90;99.90;6.40;101765.00;;;;5032174;28;20186;-68
2022/12/06 05:18:21;;;;;;;0.30;0.30;;;6.80;99.90;6.40;101752.00;;;;5027618;28;20190;-68
2022/12/06 05:21:06;;;;;;;0.93;0.93;;;6.70;99.90;6.30;101771.00;;;;5043369;28;20651;-68
2022/12/06 05:24:01;;;;;;;0.30;0.30;;;6.70;99.90;6.60;101726.00;;;;5028236;28;20202;-68
2022/12/06 05:30:53;;;;;;;0.40;0.40;;;6.90;99.90;6.60;101743.00;;;;5032917;28;20196;-68
2022/12/06 05:33:50;;;;;;;0.60;0.60;;;6.80;99.90;6.40;101749.00;;;;5032334;28;20202;-68
2022/12/06 05:36:48;;;;;;;0.50;0.50;;;6.60;99.90;6.50;101743.00;;;;5032555;28;20594;-68
2022/12/06 05:39:44;;;;;;;0.97;0.97;;;6.70;99.90;6.60;101754.00;;;;5032306;28;20646;-68
2022/12/06 05:42:38;;;;;;;0.57;0.57;;;6.60;99.90;6.40;101762.00;;;;5030044;28;20586;-68
2022/12/06 05:46:03;;;;;;;0.60;0.60;;;6.60;99.90;5.90;101701.00;;;;5020022;28;20199;-68
2022/12/06 05:49:26;;;;;;;0.60;0.60;;;6.30;99.90;6.10;101772.00;;;;5028923;28;20307;-68
2022/12/06 05:52:47;;;;;;;0.60;0.60;;;6.20;99.90;6.10;101773.00;;;;5042041;28;20196;-68
2022/12/06 05:55:43;;;;;;;0.63;0.63;;;6.20;99.90;6.00;101762.00;;;;5032250;28;20188;-68
2022/12/06 05:58:34;;;;;;;0.50;0.50;;;6.20;99.90;6.00;101753.00;;;;5009133;28;20191;-68
2022/12/06 06:01:52;;;;;;;0.60;0.60;;;6.20;99.90;5.70;101749.00;;;;5026695;28;20200;-68
2022/12/06 06:05:05;;;;;;;0.50;0.50;;;6.10;99.90;5.50;101756.00;;;;5025905;28;20213;-68
2022/12/06 06:08:08;;;;;;;0.60;0.60;;;5.80;99.90;5.90;101759.00;;;;5022578;28;20204;-68
2022/12/06 06:11:03;;;;;;;0.67;0.67;;;5.90;99.90;5.40;101751.00;;;;5027070;28;20220;-68
2022/12/06 06:14:27;;;;;;;0.73;0.73;;;5.80;99.90;5.10;101758.00;;;;5031320;28;20243;-68
2022/12/06 06:17:28;;;;;;;0.63;0.63;;;5.60;99.90;5.30;101771.00;;;;5044122;28;20191;-68
2022/12/06 06:20:38;;;;;;;0.60;0.60;;;5.40;99.90;5.00;101695.00;;;;5029092;28;20223;-68
2022/12/06 06:23:33;;;;;;;0.60;0.60;;;5.40;99.90;5.10;101729.00;;;;5031545;28;20201;-68
2022/12/06 06:26:26;;;;;;;0.50;0.50;;;5.30;99.90;5.20;101763.00;;;;5032289;28;20555;-68
2022/12/06 06:29:34;;;;;;;0.60;0.60;;;5.30;99.90;5.40;101768.00;;;;5031667;28;20527;-68
2022/12/06 06:32:38;;;;;;;0.70;0.70;;;5.50;99.90;5.30;101715.00;;;;5030689;28;20198;-68
2022/12/06 06:35:45;;;;;;;0.60;0.60;;;5.40;99.90;5.30;101725.00;;;;5023205;28;20176;-68
2022/12/06 06:38:36;;;;;;;0.70;0.70;;;5.40;99.90;5.10;101767.00;;;;5020756;28;20201;-68
2022/12/06 06:41:43;;;;;;;0.60;0.60;;;5.30;99.90;5.30;101761.00;;;;5035536;28;20191;-68
2022/12/06 06:44:53;;;;;;;0.60;0.60;;;5.40;99.90;5.30;101757.00;;;;5028870;28;20180;-68
2022/12/06 06:47:38;;;;;;;0.63;0.63;;;5.40;99.90;5.70;101762.00;;;;5031617;28;20183;-68
2022/12/06 06:50:08;;;;;;;1.43;1.43;;;5.60;99.90;5.40;101748.00;;;;5031589;28;20509;-68
2022/12/06 06:53:09;;;;;;;0.50;0.50;;;5.70;99.90;5.20;101761.00;;;;5031500;28;20254;-68
2022/12/06 06:56:04;;;;;;;0.60;0.60;;;5.50;99.90;5.40;101701.00;;;;5032236;28;20178;-68
2022/12/06 06:58:59;;;;;;;0.63;0.63;;;5.50;99.90;5.30;101767.00;;;;5033194;28;20245;-69
2022/12/06 07:01:47;;;;;;;0.60;0.60;;;5.50;99.90;5.40;101764.00;;;;5032213;28;20296;-69
2022/12/06 07:04:36;;;;;;;0.60;0.60;;;5.50;99.90;5.70;101774.00;;;;5062558;28;20204;-69
2022/12/06 07:07:18;;;;;;;0.60;0.60;;;5.70;99.90;5.40;101776.00;;;;5036398;28;20205;-69
2022/12/06 07:10:07;;;;;;;0.50;0.50;;;5.70;99.90;5.40;101779.00;;;;5035493;28;20184;-69
2022/12/06 07:12:47;;;;;;;0.70;0.70;;;5.60;99.90;5.60;101768.00;;;;5025601;28;20595;-69
2022/12/06 07:15:22;;;;;;;0.50;0.50;;;5.70;99.90;5.60;101751.00;;;;5034607;28;20660;-69
2022/12/06 07:18:24;;;;;;;0.50;0.50;;;5.80;99.90;5.70;101780.00;;;;5033790;28;20177;-68
2022/12/06 07:21:23;;;;;;;0.60;0.60;;;5.80;99.90;5.50;101773.00;;;;5018292;28;20272;-68
2022/12/06 07:24:37;;;;;;;0.50;0.50;;;5.80;99.90;5.80;101782.00;;;;5026919;28;20207;-69
2022/12/06 07:27:48;;;;;;;0.60;0.60;;;5.80;99.90;5.90;101775.00;;;;5028846;28;20585;-69
2022/12/06 07:31:02;;;;;;;0.50;0.50;;;5.90;99.90;6.20;101791.00;;;;5029470;28;20193;-69
2022/12/06 07:33:56;;;;;;;0.60;0.60;;;6.20;99.90;6.10;101789.00;;;;5019414;28;20196;-69
2022/12/06 07:36:44;;;;;;;0.70;0.70;;;6.20;99.90;6.20;101794.00;;;;5018174;28;20194;-69
2022/12/06 07:39:32;;;;;;;0.50;0.50;;;6.20;99.90;6.00;101786.00;;;;5034476;28;20242;-69
2022/12/06 07:45:20;;;;;;;0.67;0.67;;;6.10;99.90;5.50;101780.00;;;;5028707;28;20262;-69
2022/12/06 07:51:05;;;;;;;1.53;1.43;;;5.80;99.90;5.90;101795.00;;;;5020180;28;20197;-69
2022/12/06 07:53:42;;;;;;;0.40;0.40;;;6.00;99.90;5.90;101785.00;;;;5013571;28;20279;-69
2022/12/06 07:56:55;;;;;;;0.57;0.57;;;6.00;99.90;6.10;101794.00;;;;5029047;28;20194;-69
2022/12/06 07:59:24;;;;;;;0.77;0.77;;;6.10;99.90;5.90;101808.00;;;;5026412;28;20185;-69
2022/12/06 08:02:19;;;;;;;0.77;0.77;;;6.10;99.90;6.00;101808.00;;;;5033651;28;20247;-69
2022/12/06 08:04:52;;;;;;;0.90;0.90;;;6.20;99.90;6.10;101813.00;;;;5033606;28;20185;-69
2022/12/06 08:07:39;;;;;;;0.40;0.40;;;6.20;99.90;6.10;101811.00;;;;5034824;28;20221;-68
2022/12/06 08:10:19;;;;;;;0.70;0.70;;;6.30;99.90;6.40;101811.00;;;;5016230;28;20292;-69
2022/12/06 08:12:47;;;;;;;0.60;0.60;;;6.50;99.90;6.60;101745.00;;;;5035491;28;20198;-68
2022/12/06 08:15:35;;;;;;;0.50;0.50;;;6.60;99.90;6.70;101813.00;;;;5034203;28;20196;-68
2022/12/06 08:18:08;;;;;;;2.30;2.20;;;6.70;99.90;6.40;101821.00;;;;5033691;28;20198;-68
2022/12/06 08:20:34;;;;;;;0.50;0.50;;;6.70;99.90;6.60;101815.00;;;;5033912;28;20197;-69
2022/12/06 08:23:11;;;;;;;1.13;1.07;;;6.70;99.90;6.80;101823.00;;;;5031491;28;20207;-68
2022/12/06 08:25:37;;;;;;;0.77;0.77;;;6.80;99.90;6.90;101824.00;;;;5015077;28;20185;-68
2022/12/06 08:28:06;;;;;;;0.50;0.50;;;7.00;99.90;6.80;101823.00;;;;5032070;28;20224;-68
2022/12/06 08:30:39;;;;;;;0.60;0.60;;;6.90;99.90;7.00;101830.00;;;;5034790;28;20267;-68
2022/12/06 08:33:08;;;;;;;0.50;0.50;;;7.00;99.90;6.80;101809.00;;;;5020858;28;20249;-68
2022/12/06 08:35:44;;;;;;;0.70;0.70;;;6.90;99.90;6.80;101812.00;;;;5035420;28;20266;-69
2022/12/06 08:38:10;;;;;;;0.63;0.63;;;6.90;99.90;7.20;101815.00;;;;5031477;28;20183;-69
2022/12/06 08:40:36;;;;;;;1.07;1.07;;;7.20;99.90;6.60;101828.00;;;;5033628;28;20240;-69
2022/12/06 08:43:11;;;;;;;0.50;0.50;;;7.00;99.90;6.80;101821.00;;;;5034301;28;20211;-69
2022/12/06 08:45:40;;;;;;;1.70;1.70;;;7.00;99.90;6.70;101821.00;;;;5011886;28;20208;-69
2022/12/06 08:48:07;;;;;;;0.67;0.67;;;6.90;99.90;7.00;101833.00;;;;5034633;28;20179;-69
2022/12/06 08:50:33;;;;;;;0.50;0.50;;;7.00;99.90;7.00;101804.00;;;;5033817;28;20308;-69
2022/12/06 08:53:02;;;;;;;1.00;1.00;;;7.10;99.90;6.50;101821.00;;;;5014105;28;20206;-69
2022/12/06 08:56:04;;;;;;;0.70;0.70;;;7.00;99.90;6.80;101831.00;;;;5025842;28;20200;-69
2022/12/06 08:58:31;;;;;;;0.50;0.50;;;7.00;99.90;6.70;101832.00;;;;5029076;28;20240;-69
2022/12/06 09:00:57;;;;;;;0.50;0.50;;;7.10;99.90;6.70;101833.00;;;;5033230;28;20223;-69
2022/12/06 09:03:25;;;;;;;0.70;0.70;;;7.00;99.90;6.90;101837.00;;;;5033219;28;20210;-69
2022/12/06 09:05:53;;;;;;;0.60;0.60;;;7.00;99.90;7.10;101833.00;;;;5033362;28;20659;-69
2022/12/06 09:08:39;;;;;;;0.70;0.70;;;7.10;99.90;6.90;101837.00;;;;5022973;28;20183;-69
2022/12/06 09:11:15;;;;;;;0.50;0.50;;;7.20;99.90;6.50;101830.00;;;;5032447;28;20675;-69
2022/12/06 09:14:09;;;;;;;0.50;0.50;;;6.90;99.90;7.30;101782.00;;;;5016999;28;20191;-69
2022/12/06 09:16:48;;;;;;;0.60;0.60;;;7.20;99.90;7.40;101826.00;;;;5022584;28;20207;-69
2022/12/06 09:19:29;;;;;;;0.60;0.60;;;7.40;99.90;6.90;101837.00;;;;5033084;28;20582;-69
2022/12/06 09:22:12;;;;;;;6.03;5.73;;;7.10;99.90;7.20;101841.00;;;;5032509;28;20202;-69
2022/12/06 09:24:38;;;;;;;0.80;0.80;;;7.20;99.90;7.40;101841.00;;;;5032428;28;20186;-69
2022/12/06 09:27:04;;;;;;;0.80;0.80;;;7.40;99.90;7.50;101834.00;;;;5033717;28;20230;-69
2022/12/06 09:29:34;;;;;;;0.60;0.60;;;7.50;99.90;7.40;101840.00;;;;5032906;28;20191;-69
2022/12/06 09:32:03;;;;;;;0.70;0.70;;;7.50;99.90;7.50;101778.00;;;;5032407;28;20707;-69
2022/12/06 09:34:31;;;;;;;0.70;0.70;;;7.40;99.90;7.50;101777.00;;;;5032474;28;20187;-70
2022/12/06 09:37:46;;;;;;;0.70;0.70;;;7.50;99.90;7.70;101842.00;;;;5014246;28;20231;-70
2022/12/06 09:40:31;;;;;;;0.80;0.80;;;7.60;99.90;7.80;101841.00;;;;5033108;28;20332;-69
2022/12/06 09:43:21;;;;;;;0.70;0.70;;;7.70;99.90;8.00;101843.00;;;;5032235;28;20224;-70
2022/12/06 09:46:24;;;;;;;0.70;0.70;;;7.80;99.90;8.20;101842.00;;;;5032517;28;20229;-71
2022/12/06 09:49:22;;;;;;;0.70;0.70;;;8.10;99.90;8.50;101847.00;;;;5014920;28;20269;-71
2022/12/06 09:52:48;;;;;;;1.23;1.23;;;8.40;99.90;7.80;101853.00;;;;5028103;28;20191;-68
2022/12/06 09:55:51;;;;;;;0.70;0.70;;;8.30;99.90;8.30;101810.00;;;;5011516;28;20603;-70
2022/12/06 09:58:47;;;;;;;1.27;1.27;;;8.30;99.90;9.00;101848.00;;;;5030324;28;20309;-70
2022/12/06 10:02:02;;;;;;;0.90;0.90;;;8.90;99.90;9.70;101854.00;;;;5026684;28;20192;-70
2022/12/06 10:04:49;;;;;;;1.23;1.23;;;9.40;99.90;10.00;101859.00;;;;5028305;28;20182;-69
2022/12/06 10:07:24;;;;;;;1.30;1.30;;;9.70;99.90;9.40;101860.00;;;;5032756;28;20205;-69
2022/12/06 10:10:15;;;;;;;0.80;0.80;;;9.90;99.90;9.70;101869.00;;;;5045780;28;20651;-68
2022/12/06 10:13:28;;;;;;;0.80;0.80;;;9.90;99.90;10.00;101861.00;;;;5027547;28;20242;-68
2022/12/06 10:16:28;;;;;;;1.93;1.83;;;10.00;99.90;10.30;101863.00;;;;5021127;28;20290;-68
2022/12/06 10:19:21;;;;;;;0.90;0.90;;;10.30;99.90;10.50;101877.00;;;;5027217;28;20332;-68
2022/12/06 10:33:52;;;;;;;0.20;0.20;;;9.80;99.90;9.50;101862.00;;;;5070174;28;20551;-68
2022/12/06 10:36:42;;;;;;;0.20;0.20;;;9.80;99.90;9.80;101875.00;;;;5048630;28;20178;-66
2022/12/06 10:39:28;;;;;;;0.60;0.60;;;10.10;99.90;10.10;101838.00;;;;5038477;28;20767;-68
2022/12/06 10:42:10;;;;;;;0.97;0.47;;;10.30;99.90;10.70;101891.00;;;;5040720;28;20185;-68
2022/12/06 10:44:50;;;;;;;0.30;0.30;;;10.40;99.90;10.50;101891.00;;;;5041113;28;20273;-68
2022/12/06 10:47:46;;;;;;;0.17;0.17;;;10.40;99.90;10.50;101892.00;;;;5048552;28;20186;-68
2022/12/06 10:50:31;;;;;;;0.20;0.20;;;10.40;99.90;11.10;101897.00;;;;5039050;28;20564;-68
2022/12/06 10:53:41;;;;;;;0.20;0.20;;;10.80;99.90;11.00;101897.00;;;;5044456;28;20221;-69
2022/12/06 10:56:37;;;;;;;0.20;0.20;;;10.60;99.90;11.50;101861.00;;;;5039696;28;20698;-69
2022/12/06 10:59:27;;;;;;;0.20;0.20;;;10.90;99.90;11.90;101910.00;;;;5033675;28;20193;-69
2022/12/06 11:02:33;;;;;;;0.20;0.20;;;11.30;99.90;12.10;101916.00;;;;5048287;28;20226;-68
2022/12/06 11:05:08;;;;;;;0.10;0.10;;;11.70;99.90;12.10;101921.00;;;;5048384;28;20242;-64
2022/12/06 11:08:02;;;;;;;0.10;0.10;;;11.70;99.90;12.50;101928.00;;;;5048216;28;20186;-71
2022/12/06 11:10:44;;;;;;;0.10;0.10;;;11.90;99.90;12.60;101925.00;;;;5034119;28;20236;-71
2022/12/06 11:13:21;;;;;;;0.10;0.10;;;12.10;99.90;12.70;101875.00;;;;5048219;28;20261;-70
2022/12/06 11:16:17;;;;;;;0.20;0.20;;;12.20;99.90;12.80;101914.00;;;;5048058;28;20221;-70
2022/12/06 11:18:45;;;;;;;0.10;0.10;;;12.30;99.90;11.60;101905.00;;;;5040588;28;20186;-70
2022/12/06 11:21:38;;;;;;;2.33;2.23;;;12.10;99.90;12.30;101921.00;;;;5047442;28;20179;-69
2022/12/06 11:24:29;;;;;;;26.47;12.93;;;12.00;99.90;12.50;101920.00;;;;5044775;28;20182;-69
2022/12/06 11:27:21;;;;;;;0.57;0.57;;;12.10;99.90;12.50;101919.00;;;;5043432;28;20176;-69
2022/12/06 11:29:49;;;;;;;0.20;0.20;;;12.10;99.90;12.40;101889.00;;;;5048472;28;20185;-69
2022/12/06 11:32:36;;;;;;;0.10;0.10;;;11.90;99.90;12.30;101925.00;;;;5033456;28;20223;-69
2022/12/06 11:35:02;;;;;;;0.20;0.20;;;11.80;99.90;12.30;101921.00;;;;5042013;28;20199;-69
2022/12/06 11:37:31;;;;;;;6.83;1.40;;;11.90;99.90;12.10;101927.00;;;;5034570;28;20560;-70
2022/12/06 11:40:23;;;;;;;0.17;0.17;;;11.90;99.90;11.70;101923.00;;;;5056614;28;20659;-70
2022/12/06 11:43:14;;;;;;;0.60;0.50;;;11.70;99.90;11.70;101913.00;;;;5038594;28;20722;-70
2022/12/06 11:45:44;;;;;;;0.10;0.10;;;11.60;99.90;11.40;101907.00;;;;5042945;28;20264;-70
2022/12/06 11:48:27;;;;;;;0.10;0.10;;;11.30;99.90;10.90;101890.00;;;;5041282;28;20170;-69
2022/12/06 11:51:01;;;;;;;0.20;0.20;;;11.00;99.90;10.60;101901.00;;;;5042559;28;20183;-69
2022/12/06 11:54:01;;;;;;;0.70;0.70;;;10.80;99.90;10.90;101887.00;;;;5058302;28;20190;-70
2022/12/06 11:56:31;;;;;;;0.10;0.10;;;10.70;99.90;11.50;101870.00;;;;5030876;28;20202;-69
2022/12/06 11:59:06;;;;;;;0.20;0.20;;;11.00;99.90;12.00;101896.00;;;;5041790;28;20187;-69
2022/12/06 12:02:02;;;;;;;0.10;0.10;;;11.40;99.90;12.40;101901.00;;;;5033962;28;20249;-70
2022/12/06 12:04:37;;;;;;;0.10;0.10;;;11.90;99.90;12.50;101905.00;;;;5020692;28;20343;-70
2022/12/06 12:07:25;;;;;;;0.10;0.10;;;12.10;99.90;12.50;101920.00;;;;5033913;28;20643;-70
2022/12/06 12:09:59;;;;;;;1.67;1.60;;;12.20;99.90;11.70;101926.00;;;;5027130;28;20628;-70
2022/12/06 12:15:31;;;;;;;0.10;0.10;;;11.40;99.90;10.50;101909.00;;;;5033590;28;20681;-70
2022/12/06 12:17:59;;;;;;;0.37;0.37;;;11.00;99.90;10.20;101914.00;;;;5032453;28;20195;-69
2022/12/06 12:20:37;;;;;;;0.10;0.10;;;10.60;99.90;9.60;101901.00;;;;5032952;28;20791;-70
2022/12/06 12:23:21;;;;;;;0.20;0.20;;;10.20;99.90;10.40;101875.00;;;;5033405;28;20193;-69
2022/12/06 12:26:16;;;;;;;0.10;0.10;;;10.20;99.90;10.70;101874.00;;;;5033352;28;20688;-70
2022/12/06 12:29:17;;;;;;;0.20;0.20;;;10.40;99.90;10.90;101879.00;;;;5032869;28;20650;-69
2022/12/06 12:31:58;;;;;;;0.10;0.10;;;10.80;99.90;10.70;101889.00;;;;5025552;28;20673;-69
2022/12/06 12:34:48;;;;;;;0.10;0.10;;;10.70;99.90;10.40;101878.00;;;;5030522;28;20193;-69
2022/12/06 12:37:27;;;;;;;0.13;0.13;;;10.60;99.90;10.80;101882.00;;;;5026932;28;20194;-68
2022/12/06 12:39:53;;;;;;;0.10;0.10;;;10.70;99.90;10.80;101861.00;;;;5010921;28;20187;-69
2022/12/06 12:42:33;;;;;;;0.10;0.10;;;10.70;99.90;11.30;101856.00;;;;5032291;28;20210;-69
2022/12/06 12:45:04;;;;;;;0.10;0.10;;;10.80;99.90;11.50;101884.00;;;;5033303;28;20591;-69
2022/12/06 12:47:31;;;;;;;1.23;1.13;;;11.00;99.90;11.30;101879.00;;;;5033184;28;20235;-69
2022/12/06 12:50:17;;;;;;;0.23;0.23;;;11.00;99.90;11.00;101870.00;;;;5031798;28;20854;-68
2022/12/06 12:52:52;;;;;;;0.10;0.10;;;10.80;99.90;10.70;101873.00;;;;5032944;28;20220;-68
2022/12/06 12:55:45;;;;;;;0.10;0.10;;;10.70;99.90;10.40;101808.00;;;;5038316;28;20209;-69
2022/12/06 12:58:46;;;;;;;0.10;0.10;;;10.40;99.90;10.40;101865.00;;;;5039008;28;20682;-68
2022/12/06 13:01:25;;;;;;;0.10;0.10;;;10.40;99.90;10.20;101875.00;;;;5054902;28;20225;-69
2022/12/06 13:03:58;;;;;;;0.10;0.10;;;10.30;99.90;10.50;101863.00;;;;5043066;28;20196;-69
2022/12/06 13:06:41;;;;;;;0.40;0.40;;;10.30;99.90;10.30;101865.00;;;;5041629;28;20193;-69
2022/12/06 13:09:42;;;;;;;0.27;0.27;;;10.20;99.90;10.20;101877.00;;;;5024798;28;20214;-68
2022/12/06 13:12:24;;;;;;;0.10;0.10;;;10.20;99.90;10.10;101862.00;;;;5069001;28;20744;-68
2022/12/06 13:15:28;;;;;;;0.10;0.10;;;10.10;99.90;10.00;101859.00;;;;5041309;28;20213;-68
2022/12/06 13:18:19;;;;;;;0.20;0.20;;;10.10;99.90;9.90;101820.00;;;;5041666;28;20343;-68
2022/12/06 13:20:48;;;;;;;0.10;0.10;;;10.00;99.90;10.60;101870.00;;;;5042988;28;20276;-68
2022/12/06 13:23:18;;;;;;;0.20;0.20;;;10.20;99.90;10.60;101865.00;;;;5039956;28;20652;-69
2022/12/06 13:26:22;;;;;;;0.10;0.10;;;10.30;99.90;10.10;101860.00;;;;5032316;28;20667;-69
2022/12/06 13:28:57;;;;;;;0.10;0.10;;;10.20;99.90;10.10;101840.00;;;;5031275;28;20194;-68
2022/12/06 13:31:31;;;;;;;0.10;0.10;;;10.10;99.90;9.90;101843.00;;;;5032208;28;20220;-68
2022/12/06 13:34:05;;;;;;;0.10;0.10;;;10.00;99.90;10.30;101837.00;;;;5028834;28;20239;-68
2022/12/06 13:36:33;;;;;;;0.10;0.10;;;10.00;99.90;10.00;101833.00;;;;5041137;28;20195;-68
2022/12/06 13:39:49;;;;;;;0.20;0.20;;;9.90;99.90;10.00;101843.00;;;;5039828;28;20320;-65
2022/12/06 13:42:37;;;;;;;0.20;0.20;;;10.00;99.90;10.00;101840.00;;;;5038431;28;20706;-70
2022/12/06 13:45:08;;;;;;;0.67;0.67;;;10.00;99.90;10.10;101822.00;;;;5030440;28;20291;-70